sensor_id;sensor_type;location;lat;lon;timestamp;P1;durP1;ratioP1;P2;durP2;ratioP2
9789;SDS011;4934;50.852;8.098;2023-04-08T00:01:05;41.50;;;13.77;;
9789;SDS011;4934;50.852;8.098;2023-04-08T00:03:30;71.45;;;17.67;;
9789;SDS011;4934;50.852;8.098;2023-04-08T00:05:56;35.83;;;15.18;;
9789;SDS011;4934;50.852;8.098;2023-04-08T00:08:22;34.28;;;14.20;;
9789;SDS011;4934;50.852;8.098;2023-04-08T00:10:47;46.45;;;15.85;;
9789;SDS011;4934;50.852;8.098;2023-04-08T00:13:13;40.97;;;14.90;;
9789;SDS011;4934;50.852;8.098;2023-04-08T00:15:39;37.55;;;15.52;;
9789;SDS011;4934;50.852;8.098;2023-04-08T00:18:05;32.30;;;13.57;;
9789;SDS011;4934;50.852;8.098;2023-04-08T00:20:32;39.38;;;14.07;;
9789;SDS011;4934;50.852;8.098;2023-04-08T00:22:57;36.58;;;13.82;;
9789;SDS011;4934;50.852;8.098;2023-04-08T00:25:23;36.78;;;12.75;;
9789;SDS011;4934;50.852;8.098;2023-04-08T00:27:48;32.40;;;12.57;;
9789;SDS011;4934;50.852;8.098;2023-04-08T00:30:14;32.05;;;12.13;;
9789;SDS011;4934;50.852;8.098;2023-04-08T00:32:40;55.25;;;11.90;;
9789;SDS011;4934;50.852;8.098;2023-04-08T00:35:06;37.72;;;11.38;;
9789;SDS011;4934;50.852;8.098;2023-04-08T00:37:31;36.08;;;11.05;;
9789;SDS011;4934;50.852;8.098;2023-04-08T00:39:57;27.73;;;11.23;;
9789;SDS011;4934;50.852;8.098;2023-04-08T00:42:23;22.25;;;10.15;;
9789;SDS011;4934;50.852;8.098;2023-04-08T00:44:48;27.40;;;11.50;;
9789;SDS011;4934;50.852;8.098;2023-04-08T00:47:14;22.45;;;10.82;;
9789;SDS011;4934;50.852;8.098;2023-04-08T00:49:41;23.95;;;9.75;;
9789;SDS011;4934;50.852;8.098;2023-04-08T00:52:07;21.67;;;9.25;;
9789;SDS011;4934;50.852;8.098;2023-04-08T00:54:32;26.70;;;9.55;;
9789;SDS011;4934;50.852;8.098;2023-04-08T00:57:00;21.07;;;9.70;;
9789;SDS011;4934;50.852;8.098;2023-04-08T00:59:26;19.70;;;9.07;;
9789;SDS011;4934;50.852;8.098;2023-04-08T01:01:56;30.60;;;9.90;;
9789;SDS011;4934;50.852;8.098;2023-04-08T01:04:48;23.75;;;9.57;;
9789;SDS011;4934;50.852;8.098;2023-04-08T01:07:31;42.13;;;9.65;;
9789;SDS011;4934;50.852;8.098;2023-04-08T01:10:04;39.70;;;9.55;;
9789;SDS011;4934;50.852;8.098;2023-04-08T01:12:40;26.95;;;9.55;;
9789;SDS011;4934;50.852;8.098;2023-04-08T01:15:12;25.02;;;9.65;;
9789;SDS011;4934;50.852;8.098;2023-04-08T01:17:39;34.67;;;10.88;;
9789;SDS011;4934;50.852;8.098;2023-04-08T01:20:07;22.97;;;9.70;;
9789;SDS011;4934;50.852;8.098;2023-04-08T01:25:31;58.55;;;11.65;;
9789;SDS011;4934;50.852;8.098;2023-04-08T01:28:17;35.60;;;10.38;;
9789;SDS011;4934;50.852;8.098;2023-04-08T01:30:45;26.98;;;10.93;;
9789;SDS011;4934;50.852;8.098;2023-04-08T01:33:12;31.55;;;10.05;;
9789;SDS011;4934;50.852;8.098;2023-04-08T01:38:07;27.42;;;8.60;;
9789;SDS011;4934;50.852;8.098;2023-04-08T01:40:35;45.78;;;10.45;;
9789;SDS011;4934;50.852;8.098;2023-04-08T01:43:03;61.42;;;10.88;;
9789;SDS011;4934;50.852;8.098;2023-04-08T01:45:32;53.00;;;10.73;;
9789;SDS011;4934;50.852;8.098;2023-04-08T01:47:57;23.45;;;8.93;;
9789;SDS011;4934;50.852;8.098;2023-04-08T01:50:24;20.00;;;9.18;;
9789;SDS011;4934;50.852;8.098;2023-04-08T01:52:51;50.63;;;10.50;;
9789;SDS011;4934;50.852;8.098;2023-04-08T01:55:18;29.27;;;9.93;;
9789;SDS011;4934;50.852;8.098;2023-04-08T01:57:48;30.00;;;9.30;;
9789;SDS011;4934;50.852;8.098;2023-04-08T02:00:18;21.60;;;8.18;;
9789;SDS011;4934;50.852;8.098;2023-04-08T02:02:46;23.02;;;8.13;;
9789;SDS011;4934;50.852;8.098;2023-04-08T02:05:13;37.60;;;10.15;;
9789;SDS011;4934;50.852;8.098;2023-04-08T02:07:39;21.13;;;9.30;;
9789;SDS011;4934;50.852;8.098;2023-04-08T02:10:05;26.75;;;9.00;;
9789;SDS011;4934;50.852;8.098;2023-04-08T02:12:32;26.13;;;9.02;;
9789;SDS011;4934;50.852;8.098;2023-04-08T02:14:58;121.55;;;14.07;;
9789;SDS011;4934;50.852;8.098;2023-04-08T02:17:30;109.75;;;17.35;;
9789;SDS011;4934;50.852;8.098;2023-04-08T02:20:22;91.80;;;14.50;;
9789;SDS011;4934;50.852;8.098;2023-04-08T02:23:13;163.88;;;18.90;;
9789;SDS011;4934;50.852;8.098;2023-04-08T02:25:49;29.85;;;12.35;;
9789;SDS011;4934;50.852;8.098;2023-04-08T02:28:16;28.77;;;12.98;;
9789;SDS011;4934;50.852;8.098;2023-04-08T02:30:47;24.85;;;12.25;;
9789;SDS011;4934;50.852;8.098;2023-04-08T02:33:15;31.48;;;14.35;;
9789;SDS011;4934;50.852;8.098;2023-04-08T02:35:43;29.67;;;13.88;;
9789;SDS011;4934;50.852;8.098;2023-04-08T02:38:09;27.45;;;13.02;;
9789;SDS011;4934;50.852;8.098;2023-04-08T02:40:35;28.17;;;12.50;;
9789;SDS011;4934;50.852;8.098;2023-04-08T02:43:01;29.88;;;14.48;;
9789;SDS011;4934;50.852;8.098;2023-04-08T02:45:27;29.10;;;13.68;;
9789;SDS011;4934;50.852;8.098;2023-04-08T02:47:55;33.92;;;14.30;;
9789;SDS011;4934;50.852;8.098;2023-04-08T02:50:21;28.90;;;14.70;;
9789;SDS011;4934;50.852;8.098;2023-04-08T02:52:47;27.40;;;13.07;;
9789;SDS011;4934;50.852;8.098;2023-04-08T02:55:12;28.70;;;12.43;;
9789;SDS011;4934;50.852;8.098;2023-04-08T02:57:38;44.67;;;13.80;;
9789;SDS011;4934;50.852;8.098;2023-04-08T03:00:08;30.50;;;12.95;;
9789;SDS011;4934;50.852;8.098;2023-04-08T03:02:34;28.63;;;12.48;;
9789;SDS011;4934;50.852;8.098;2023-04-08T03:05:00;26.20;;;12.55;;
9789;SDS011;4934;50.852;8.098;2023-04-08T03:07:26;26.60;;;12.80;;
9789;SDS011;4934;50.852;8.098;2023-04-08T03:09:52;41.55;;;13.77;;
9789;SDS011;4934;50.852;8.098;2023-04-08T03:12:19;24.33;;;12.50;;
9789;SDS011;4934;50.852;8.098;2023-04-08T03:14:45;27.02;;;13.13;;
9789;SDS011;4934;50.852;8.098;2023-04-08T03:17:11;36.67;;;13.63;;
9789;SDS011;4934;50.852;8.098;2023-04-08T03:19:37;30.65;;;13.30;;
9789;SDS011;4934;50.852;8.098;2023-04-08T03:22:02;26.05;;;13.07;;
9789;SDS011;4934;50.852;8.098;2023-04-08T03:24:28;38.78;;;12.18;;
9789;SDS011;4934;50.852;8.098;2023-04-08T03:26:53;42.40;;;12.82;;
9789;SDS011;4934;50.852;8.098;2023-04-08T03:29:19;30.90;;;12.18;;
9789;SDS011;4934;50.852;8.098;2023-04-08T03:31:45;31.33;;;11.80;;
9789;SDS011;4934;50.852;8.098;2023-04-08T03:34:10;18.38;;;10.77;;
9789;SDS011;4934;50.852;8.098;2023-04-08T03:36:36;27.23;;;11.85;;
9789;SDS011;4934;50.852;8.098;2023-04-08T03:39:02;26.25;;;11.70;;
9789;SDS011;4934;50.852;8.098;2023-04-08T03:41:27;28.65;;;12.57;;
9789;SDS011;4934;50.852;8.098;2023-04-08T03:43:54;26.05;;;11.63;;
9789;SDS011;4934;50.852;8.098;2023-04-08T03:46:21;25.23;;;12.18;;
9789;SDS011;4934;50.852;8.098;2023-04-08T03:48:47;26.63;;;12.35;;
9789;SDS011;4934;50.852;8.098;2023-04-08T03:51:13;28.90;;;12.73;;
9789;SDS011;4934;50.852;8.098;2023-04-08T03:53:38;24.02;;;11.77;;
9789;SDS011;4934;50.852;8.098;2023-04-08T03:56:04;29.58;;;12.35;;
9789;SDS011;4934;50.852;8.098;2023-04-08T03:58:30;26.88;;;12.15;;
9789;SDS011;4934;50.852;8.098;2023-04-08T04:00:56;27.95;;;13.32;;
9789;SDS011;4934;50.852;8.098;2023-04-08T04:03:22;30.08;;;13.45;;
9789;SDS011;4934;50.852;8.098;2023-04-08T04:05:47;29.38;;;13.05;;
9789;SDS011;4934;50.852;8.098;2023-04-08T04:08:13;37.65;;;15.00;;
9789;SDS011;4934;50.852;8.098;2023-04-08T04:10:39;32.17;;;13.38;;
9789;SDS011;4934;50.852;8.098;2023-04-08T04:13:05;48.00;;;15.00;;
9789;SDS011;4934;50.852;8.098;2023-04-08T04:15:30;45.47;;;14.60;;
9789;SDS011;4934;50.852;8.098;2023-04-08T04:17:56;48.85;;;15.02;;
9789;SDS011;4934;50.852;8.098;2023-04-08T04:20:21;53.15;;;14.13;;
9789;SDS011;4934;50.852;8.098;2023-04-08T04:22:47;31.80;;;13.75;;
9789;SDS011;4934;50.852;8.098;2023-04-08T04:25:12;32.15;;;14.52;;
9789;SDS011;4934;50.852;8.098;2023-04-08T04:27:38;37.95;;;14.77;;
9789;SDS011;4934;50.852;8.098;2023-04-08T04:30:04;29.90;;;14.55;;
9789;SDS011;4934;50.852;8.098;2023-04-08T04:32:31;57.95;;;16.58;;
9789;SDS011;4934;50.852;8.098;2023-04-08T04:34:57;38.47;;;16.17;;
9789;SDS011;4934;50.852;8.098;2023-04-08T04:37:22;37.38;;;16.27;;
9789;SDS011;4934;50.852;8.098;2023-04-08T04:39:48;36.88;;;16.55;;
9789;SDS011;4934;50.852;8.098;2023-04-08T04:42:13;38.73;;;16.00;;
9789;SDS011;4934;50.852;8.098;2023-04-08T04:44:39;40.70;;;16.67;;
9789;SDS011;4934;50.852;8.098;2023-04-08T04:47:05;39.33;;;16.47;;
9789;SDS011;4934;50.852;8.098;2023-04-08T04:49:30;39.65;;;16.55;;
9789;SDS011;4934;50.852;8.098;2023-04-08T04:51:56;36.13;;;16.47;;
9789;SDS011;4934;50.852;8.098;2023-04-08T04:54:22;39.63;;;17.70;;
9789;SDS011;4934;50.852;8.098;2023-04-08T04:56:47;37.50;;;16.03;;
9789;SDS011;4934;50.852;8.098;2023-04-08T04:59:13;37.67;;;16.33;;
9789;SDS011;4934;50.852;8.098;2023-04-08T05:01:38;42.20;;;16.77;;
9789;SDS011;4934;50.852;8.098;2023-04-08T05:04:05;39.43;;;16.47;;
9789;SDS011;4934;50.852;8.098;2023-04-08T05:06:31;41.70;;;19.02;;
9789;SDS011;4934;50.852;8.098;2023-04-08T05:08:57;47.42;;;18.90;;
9789;SDS011;4934;50.852;8.098;2023-04-08T05:11:22;41.17;;;18.23;;
9789;SDS011;4934;50.852;8.098;2023-04-08T05:13:48;41.22;;;18.83;;
9789;SDS011;4934;50.852;8.098;2023-04-08T05:16:13;35.10;;;17.23;;
9789;SDS011;4934;50.852;8.098;2023-04-08T05:18:40;42.22;;;18.58;;
9789;SDS011;4934;50.852;8.098;2023-04-08T05:21:06;37.72;;;16.90;;
9789;SDS011;4934;50.852;8.098;2023-04-08T05:23:33;42.60;;;17.00;;
9789;SDS011;4934;50.852;8.098;2023-04-08T05:25:59;42.08;;;17.90;;
9789;SDS011;4934;50.852;8.098;2023-04-08T05:28:24;39.92;;;18.15;;
9789;SDS011;4934;50.852;8.098;2023-04-08T05:30:50;40.40;;;17.73;;
9789;SDS011;4934;50.852;8.098;2023-04-08T05:33:17;42.00;;;17.65;;
9789;SDS011;4934;50.852;8.098;2023-04-08T05:35:43;41.25;;;16.58;;
9789;SDS011;4934;50.852;8.098;2023-04-08T05:38:09;37.10;;;16.40;;
9789;SDS011;4934;50.852;8.098;2023-04-08T05:40:35;37.60;;;16.73;;
9789;SDS011;4934;50.852;8.098;2023-04-08T05:43:01;42.22;;;18.92;;
9789;SDS011;4934;50.852;8.098;2023-04-08T05:45:26;39.33;;;17.02;;
9789;SDS011;4934;50.852;8.098;2023-04-08T05:47:52;43.95;;;18.55;;
9789;SDS011;4934;50.852;8.098;2023-04-08T05:50:18;44.35;;;19.20;;
9789;SDS011;4934;50.852;8.098;2023-04-08T05:52:43;43.95;;;18.98;;
9789;SDS011;4934;50.852;8.098;2023-04-08T05:55:10;43.38;;;17.85;;
9789;SDS011;4934;50.852;8.098;2023-04-08T05:57:37;45.03;;;19.70;;
9789;SDS011;4934;50.852;8.098;2023-04-08T06:00:06;45.03;;;18.98;;
9789;SDS011;4934;50.852;8.098;2023-04-08T06:02:34;40.05;;;17.02;;
9789;SDS011;4934;50.852;8.098;2023-04-08T06:05:00;40.47;;;16.73;;
9789;SDS011;4934;50.852;8.098;2023-04-08T06:07:27;33.40;;;16.52;;
9789;SDS011;4934;50.852;8.098;2023-04-08T06:09:53;37.65;;;16.33;;
9789;SDS011;4934;50.852;8.098;2023-04-08T06:12:19;36.88;;;15.93;;
9789;SDS011;4934;50.852;8.098;2023-04-08T06:14:45;36.20;;;16.38;;
9789;SDS011;4934;50.852;8.098;2023-04-08T06:17:10;45.00;;;20.15;;
9789;SDS011;4934;50.852;8.098;2023-04-08T06:19:36;37.22;;;17.52;;
9789;SDS011;4934;50.852;8.098;2023-04-08T06:22:01;35.13;;;16.17;;
9789;SDS011;4934;50.852;8.098;2023-04-08T06:24:27;39.28;;;18.20;;
9789;SDS011;4934;50.852;8.098;2023-04-08T06:26:53;44.58;;;19.38;;
9789;SDS011;4934;50.852;8.098;2023-04-08T06:29:22;39.05;;;17.35;;
9789;SDS011;4934;50.852;8.098;2023-04-08T06:31:48;44.47;;;19.10;;
9789;SDS011;4934;50.852;8.098;2023-04-08T06:34:16;46.03;;;18.65;;
9789;SDS011;4934;50.852;8.098;2023-04-08T06:36:42;47.63;;;20.40;;
9789;SDS011;4934;50.852;8.098;2023-04-08T06:39:08;45.20;;;19.65;;
9789;SDS011;4934;50.852;8.098;2023-04-08T06:41:33;47.88;;;20.17;;
9789;SDS011;4934;50.852;8.098;2023-04-08T06:43:59;43.60;;;18.55;;
9789;SDS011;4934;50.852;8.098;2023-04-08T06:46:25;47.05;;;20.33;;
9789;SDS011;4934;50.852;8.098;2023-04-08T06:48:51;46.67;;;19.42;;
9789;SDS011;4934;50.852;8.098;2023-04-08T06:51:16;41.90;;;17.95;;
9789;SDS011;4934;50.852;8.098;2023-04-08T06:53:42;46.13;;;18.85;;
9789;SDS011;4934;50.852;8.098;2023-04-08T06:56:07;47.28;;;23.50;;
9789;SDS011;4934;50.852;8.098;2023-04-08T06:58:33;50.50;;;21.17;;
9789;SDS011;4934;50.852;8.098;2023-04-08T07:00:59;47.47;;;20.38;;
9789;SDS011;4934;50.852;8.098;2023-04-08T07:03:26;55.65;;;24.55;;
9789;SDS011;4934;50.852;8.098;2023-04-08T07:05:52;51.55;;;21.30;;
9789;SDS011;4934;50.852;8.098;2023-04-08T07:08:17;46.53;;;21.08;;
9789;SDS011;4934;50.852;8.098;2023-04-08T07:10:43;48.80;;;19.33;;
9789;SDS011;4934;50.852;8.098;2023-04-08T07:13:09;53.35;;;20.13;;
9789;SDS011;4934;50.852;8.098;2023-04-08T07:15:35;50.88;;;19.27;;
9789;SDS011;4934;50.852;8.098;2023-04-08T07:18:00;53.35;;;22.58;;
9789;SDS011;4934;50.852;8.098;2023-04-08T07:20:27;48.33;;;20.20;;
9789;SDS011;4934;50.852;8.098;2023-04-08T07:22:52;51.80;;;19.05;;
9789;SDS011;4934;50.852;8.098;2023-04-08T07:25:18;51.45;;;20.55;;
9789;SDS011;4934;50.852;8.098;2023-04-08T07:27:43;56.15;;;19.92;;
9789;SDS011;4934;50.852;8.098;2023-04-08T07:30:09;55.05;;;22.13;;
9789;SDS011;4934;50.852;8.098;2023-04-08T07:32:35;52.80;;;21.90;;
9789;SDS011;4934;50.852;8.098;2023-04-08T07:35:01;55.88;;;23.83;;
9789;SDS011;4934;50.852;8.098;2023-04-08T07:37:27;56.53;;;21.85;;
9789;SDS011;4934;50.852;8.098;2023-04-08T07:39:52;53.47;;;21.70;;
9789;SDS011;4934;50.852;8.098;2023-04-08T07:42:18;48.50;;;20.02;;
9789;SDS011;4934;50.852;8.098;2023-04-08T07:44:46;54.40;;;20.25;;
9789;SDS011;4934;50.852;8.098;2023-04-08T07:49:38;51.60;;;20.83;;
9789;SDS011;4934;50.852;8.098;2023-04-08T07:52:04;55.85;;;20.95;;
9789;SDS011;4934;50.852;8.098;2023-04-08T07:54:30;53.67;;;21.70;;
9789;SDS011;4934;50.852;8.098;2023-04-08T07:56:58;54.60;;;20.90;;
9789;SDS011;4934;50.852;8.098;2023-04-08T07:59:24;58.03;;;22.40;;
9789;SDS011;4934;50.852;8.098;2023-04-08T08:01:50;52.28;;;21.27;;
9789;SDS011;4934;50.852;8.098;2023-04-08T08:04:15;51.72;;;20.63;;
9789;SDS011;4934;50.852;8.098;2023-04-08T08:06:42;47.95;;;19.67;;
9789;SDS011;4934;50.852;8.098;2023-04-08T08:09:07;46.72;;;19.13;;
9789;SDS011;4934;50.852;8.098;2023-04-08T08:11:33;50.55;;;20.20;;
9789;SDS011;4934;50.852;8.098;2023-04-08T08:13:59;51.13;;;21.27;;
9789;SDS011;4934;50.852;8.098;2023-04-08T08:16:28;49.97;;;21.35;;
9789;SDS011;4934;50.852;8.098;2023-04-08T08:18:53;46.70;;;21.83;;
9789;SDS011;4934;50.852;8.098;2023-04-08T08:21:19;52.42;;;23.27;;
9789;SDS011;4934;50.852;8.098;2023-04-08T08:23:44;50.08;;;20.83;;
9789;SDS011;4934;50.852;8.098;2023-04-08T08:26:11;49.63;;;21.17;;
9789;SDS011;4934;50.852;8.098;2023-04-08T08:28:37;47.92;;;20.45;;
9789;SDS011;4934;50.852;8.098;2023-04-08T08:31:03;51.20;;;22.08;;
9789;SDS011;4934;50.852;8.098;2023-04-08T08:33:30;50.72;;;20.60;;
9789;SDS011;4934;50.852;8.098;2023-04-08T08:35:56;44.65;;;19.83;;
9789;SDS011;4934;50.852;8.098;2023-04-08T08:38:22;42.90;;;21.75;;
9789;SDS011;4934;50.852;8.098;2023-04-08T08:40:55;47.60;;;20.92;;
9789;SDS011;4934;50.852;8.098;2023-04-08T08:43:21;46.63;;;20.02;;
9789;SDS011;4934;50.852;8.098;2023-04-08T08:45:47;42.38;;;19.52;;
9789;SDS011;4934;50.852;8.098;2023-04-08T08:48:13;45.15;;;21.42;;
9789;SDS011;4934;50.852;8.098;2023-04-08T08:50:38;42.50;;;20.02;;
9789;SDS011;4934;50.852;8.098;2023-04-08T08:53:04;43.88;;;19.70;;
9789;SDS011;4934;50.852;8.098;2023-04-08T08:55:30;40.13;;;19.10;;
9789;SDS011;4934;50.852;8.098;2023-04-08T08:57:58;46.27;;;20.87;;
9789;SDS011;4934;50.852;8.098;2023-04-08T09:00:35;56.35;;;21.13;;
9789;SDS011;4934;50.852;8.098;2023-04-08T09:03:18;50.57;;;21.03;;
9789;SDS011;4934;50.852;8.098;2023-04-08T09:05:46;47.10;;;20.60;;
9789;SDS011;4934;50.852;8.098;2023-04-08T09:08:35;47.88;;;21.00;;
9789;SDS011;4934;50.852;8.098;2023-04-08T09:11:14;49.97;;;21.35;;
9789;SDS011;4934;50.852;8.098;2023-04-08T09:13:46;46.03;;;21.13;;
9789;SDS011;4934;50.852;8.098;2023-04-08T09:16:12;43.60;;;19.77;;
9789;SDS011;4934;50.852;8.098;2023-04-08T09:18:42;43.03;;;20.50;;
9789;SDS011;4934;50.852;8.098;2023-04-08T09:21:09;46.75;;;21.27;;
9789;SDS011;4934;50.852;8.098;2023-04-08T09:23:48;45.17;;;20.30;;
9789;SDS011;4934;50.852;8.098;2023-04-08T09:26:16;40.10;;;19.90;;
9789;SDS011;4934;50.852;8.098;2023-04-08T09:31:30;42.97;;;19.50;;
9789;SDS011;4934;50.852;8.098;2023-04-08T09:33:58;41.20;;;19.58;;
9789;SDS011;4934;50.852;8.098;2023-04-08T09:36:26;40.42;;;19.08;;
9789;SDS011;4934;50.852;8.098;2023-04-08T09:38:52;45.47;;;20.65;;
9789;SDS011;4934;50.852;8.098;2023-04-08T09:41:19;42.67;;;20.60;;
9789;SDS011;4934;50.852;8.098;2023-04-08T09:43:48;44.38;;;20.17;;
9789;SDS011;4934;50.852;8.098;2023-04-08T09:46:16;40.38;;;20.88;;
9789;SDS011;4934;50.852;8.098;2023-04-08T09:48:45;41.83;;;20.08;;
9789;SDS011;4934;50.852;8.098;2023-04-08T09:51:14;39.53;;;18.33;;
9789;SDS011;4934;50.852;8.098;2023-04-08T09:53:43;41.03;;;19.75;;
9789;SDS011;4934;50.852;8.098;2023-04-08T09:56:11;41.58;;;19.73;;
9789;SDS011;4934;50.852;8.098;2023-04-08T09:58:41;40.70;;;19.20;;
9789;SDS011;4934;50.852;8.098;2023-04-08T10:01:13;45.80;;;20.75;;
9789;SDS011;4934;50.852;8.098;2023-04-08T10:03:51;39.10;;;19.33;;
9789;SDS011;4934;50.852;8.098;2023-04-08T10:06:19;40.65;;;20.33;;
9789;SDS011;4934;50.852;8.098;2023-04-08T10:08:51;39.38;;;19.65;;
9789;SDS011;4934;50.852;8.098;2023-04-08T10:11:17;43.00;;;20.77;;
9789;SDS011;4934;50.852;8.098;2023-04-08T10:13:43;41.10;;;19.70;;
9789;SDS011;4934;50.852;8.098;2023-04-08T10:18:41;40.17;;;18.90;;
9789;SDS011;4934;50.852;8.098;2023-04-08T10:23:56;43.03;;;19.90;;
9789;SDS011;4934;50.852;8.098;2023-04-08T10:26:39;42.38;;;20.20;;
9789;SDS011;4934;50.852;8.098;2023-04-08T10:31:47;38.05;;;18.50;;
9789;SDS011;4934;50.852;8.098;2023-04-08T10:34:19;37.42;;;18.80;;
9789;SDS011;4934;50.852;8.098;2023-04-08T10:36:47;37.20;;;18.52;;
9789;SDS011;4934;50.852;8.098;2023-04-08T10:39:13;34.65;;;17.02;;
9789;SDS011;4934;50.852;8.098;2023-04-08T10:41:43;36.92;;;18.27;;
9789;SDS011;4934;50.852;8.098;2023-04-08T10:44:17;33.53;;;16.50;;
9789;SDS011;4934;50.852;8.098;2023-04-08T10:46:43;34.90;;;17.90;;
9789;SDS011;4934;50.852;8.098;2023-04-08T10:49:13;35.03;;;16.85;;
9789;SDS011;4934;50.852;8.098;2023-04-08T10:51:39;34.13;;;16.90;;
9789;SDS011;4934;50.852;8.098;2023-04-08T10:54:08;35.50;;;17.60;;
9789;SDS011;4934;50.852;8.098;2023-04-08T10:59:14;36.25;;;17.05;;
9789;SDS011;4934;50.852;8.098;2023-04-08T11:01:52;37.90;;;17.83;;
9789;SDS011;4934;50.852;8.098;2023-04-08T11:04:17;30.75;;;17.15;;
9789;SDS011;4934;50.852;8.098;2023-04-08T11:06:44;32.30;;;16.17;;
9789;SDS011;4934;50.852;8.098;2023-04-08T11:09:11;34.17;;;17.77;;
9789;SDS011;4934;50.852;8.098;2023-04-08T11:11:39;33.72;;;17.02;;
9789;SDS011;4934;50.852;8.098;2023-04-08T11:14:06;33.08;;;16.67;;
9789;SDS011;4934;50.852;8.098;2023-04-08T11:16:32;30.55;;;15.00;;
9789;SDS011;4934;50.852;8.098;2023-04-08T11:18:58;28.88;;;14.68;;
9789;SDS011;4934;50.852;8.098;2023-04-08T11:21:26;30.90;;;15.80;;
9789;SDS011;4934;50.852;8.098;2023-04-08T11:23:54;29.90;;;14.98;;
9789;SDS011;4934;50.852;8.098;2023-04-08T11:26:20;30.83;;;15.05;;
9789;SDS011;4934;50.852;8.098;2023-04-08T11:28:46;27.25;;;15.30;;
9789;SDS011;4934;50.852;8.098;2023-04-08T11:31:16;26.90;;;14.70;;
9789;SDS011;4934;50.852;8.098;2023-04-08T11:33:43;26.58;;;13.43;;
9789;SDS011;4934;50.852;8.098;2023-04-08T11:36:12;25.15;;;13.23;;
9789;SDS011;4934;50.852;8.098;2023-04-08T11:38:38;26.30;;;14.57;;
9789;SDS011;4934;50.852;8.098;2023-04-08T11:41:07;29.10;;;14.80;;
9789;SDS011;4934;50.852;8.098;2023-04-08T11:43:33;27.42;;;14.93;;
9789;SDS011;4934;50.852;8.098;2023-04-08T11:46:11;27.92;;;15.02;;
9789;SDS011;4934;50.852;8.098;2023-04-08T11:48:40;26.15;;;14.43;;
9789;SDS011;4934;50.852;8.098;2023-04-08T11:51:06;28.65;;;14.60;;
9789;SDS011;4934;50.852;8.098;2023-04-08T11:53:36;27.95;;;14.10;;
9789;SDS011;4934;50.852;8.098;2023-04-08T11:56:14;28.33;;;14.95;;
9789;SDS011;4934;50.852;8.098;2023-04-08T11:58:43;25.95;;;13.38;;
9789;SDS011;4934;50.852;8.098;2023-04-08T12:01:10;21.90;;;12.25;;
9789;SDS011;4934;50.852;8.098;2023-04-08T12:03:36;21.42;;;11.90;;
9789;SDS011;4934;50.852;8.098;2023-04-08T12:06:01;28.55;;;14.00;;
9789;SDS011;4934;50.852;8.098;2023-04-08T12:08:28;26.45;;;13.48;;
9789;SDS011;4934;50.852;8.098;2023-04-08T12:10:54;21.15;;;11.82;;
9789;SDS011;4934;50.852;8.098;2023-04-08T12:13:19;20.88;;;11.45;;
9789;SDS011;4934;50.852;8.098;2023-04-08T12:15:45;26.23;;;13.77;;
9789;SDS011;4934;50.852;8.098;2023-04-08T12:18:11;22.50;;;12.65;;
9789;SDS011;4934;50.852;8.098;2023-04-08T12:20:48;20.65;;;10.90;;
9789;SDS011;4934;50.852;8.098;2023-04-08T12:23:14;22.83;;;12.00;;
9789;SDS011;4934;50.852;8.098;2023-04-08T12:25:40;15.43;;;9.23;;
9789;SDS011;4934;50.852;8.098;2023-04-08T12:28:06;16.73;;;9.48;;
9789;SDS011;4934;50.852;8.098;2023-04-08T12:30:33;18.75;;;8.55;;
9789;SDS011;4934;50.852;8.098;2023-04-08T12:32:59;16.25;;;8.82;;
9789;SDS011;4934;50.852;8.098;2023-04-08T12:35:25;19.75;;;9.85;;
9789;SDS011;4934;50.852;8.098;2023-04-08T12:37:50;15.82;;;8.90;;
9789;SDS011;4934;50.852;8.098;2023-04-08T12:40:16;15.73;;;8.65;;
9789;SDS011;4934;50.852;8.098;2023-04-08T12:42:45;18.42;;;8.07;;
9789;SDS011;4934;50.852;8.098;2023-04-08T12:45:10;15.45;;;8.77;;
9789;SDS011;4934;50.852;8.098;2023-04-08T12:47:36;14.88;;;8.60;;
9789;SDS011;4934;50.852;8.098;2023-04-08T12:50:02;16.35;;;9.32;;
9789;SDS011;4934;50.852;8.098;2023-04-08T12:52:27;15.77;;;7.65;;
9789;SDS011;4934;50.852;8.098;2023-04-08T12:54:53;13.68;;;8.45;;
9789;SDS011;4934;50.852;8.098;2023-04-08T12:57:18;18.80;;;9.43;;
9789;SDS011;4934;50.852;8.098;2023-04-08T12:59:44;13.95;;;7.35;;
9789;SDS011;4934;50.852;8.098;2023-04-08T13:02:09;9.05;;;6.00;;
9789;SDS011;4934;50.852;8.098;2023-04-08T13:04:35;10.65;;;6.45;;
9789;SDS011;4934;50.852;8.098;2023-04-08T13:07:01;10.57;;;6.13;;
9789;SDS011;4934;50.852;8.098;2023-04-08T13:09:28;10.93;;;6.03;;
9789;SDS011;4934;50.852;8.098;2023-04-08T13:11:54;12.13;;;6.05;;
9789;SDS011;4934;50.852;8.098;2023-04-08T13:14:20;10.10;;;5.32;;
9789;SDS011;4934;50.852;8.098;2023-04-08T13:16:46;8.77;;;5.20;;
9789;SDS011;4934;50.852;8.098;2023-04-08T13:19:11;10.68;;;5.22;;
9789;SDS011;4934;50.852;8.098;2023-04-08T13:21:37;7.95;;;5.07;;
9789;SDS011;4934;50.852;8.098;2023-04-08T13:24:03;9.07;;;5.35;;
9789;SDS011;4934;50.852;8.098;2023-04-08T13:26:28;7.68;;;4.72;;
9789;SDS011;4934;50.852;8.098;2023-04-08T13:28:54;7.50;;;4.57;;
9789;SDS011;4934;50.852;8.098;2023-04-08T13:31:20;9.13;;;4.32;;
9789;SDS011;4934;50.852;8.098;2023-04-08T13:33:45;5.78;;;4.53;;
9789;SDS011;4934;50.852;8.098;2023-04-08T13:36:11;8.85;;;4.88;;
9789;SDS011;4934;50.852;8.098;2023-04-08T13:38:36;6.03;;;4.50;;
9789;SDS011;4934;50.852;8.098;2023-04-08T13:41:02;7.30;;;4.45;;
9789;SDS011;4934;50.852;8.098;2023-04-08T13:43:28;7.22;;;4.80;;
9789;SDS011;4934;50.852;8.098;2023-04-08T13:45:53;8.00;;;4.40;;
9789;SDS011;4934;50.852;8.098;2023-04-08T13:48:19;10.23;;;6.82;;
9789;SDS011;4934;50.852;8.098;2023-04-08T13:50:45;9.40;;;4.05;;
9789;SDS011;4934;50.852;8.098;2023-04-08T13:53:11;8.13;;;4.43;;
9789;SDS011;4934;50.852;8.098;2023-04-08T13:55:36;5.80;;;4.20;;
9789;SDS011;4934;50.852;8.098;2023-04-08T13:58:02;6.68;;;3.88;;
9789;SDS011;4934;50.852;8.098;2023-04-08T14:00:27;11.80;;;4.35;;
9789;SDS011;4934;50.852;8.098;2023-04-08T14:02:53;5.45;;;3.35;;
9789;SDS011;4934;50.852;8.098;2023-04-08T14:05:19;7.43;;;4.18;;
9789;SDS011;4934;50.852;8.098;2023-04-08T14:07:44;5.97;;;3.95;;
9789;SDS011;4934;50.852;8.098;2023-04-08T14:10:10;5.43;;;3.70;;
9789;SDS011;4934;50.852;8.098;2023-04-08T14:12:35;6.07;;;3.80;;
9789;SDS011;4934;50.852;8.098;2023-04-08T14:15:01;6.03;;;3.38;;
9789;SDS011;4934;50.852;8.098;2023-04-08T14:17:27;5.32;;;4.22;;
9789;SDS011;4934;50.852;8.098;2023-04-08T14:19:52;4.72;;;3.30;;
9789;SDS011;4934;50.852;8.098;2023-04-08T14:22:18;7.13;;;4.13;;
9789;SDS011;4934;50.852;8.098;2023-04-08T14:24:45;7.03;;;4.40;;
9789;SDS011;4934;50.852;8.098;2023-04-08T14:27:11;10.93;;;5.10;;
9789;SDS011;4934;50.852;8.098;2023-04-08T14:29:36;8.98;;;4.93;;
9789;SDS011;4934;50.852;8.098;2023-04-08T14:32:02;10.95;;;6.32;;
9789;SDS011;4934;50.852;8.098;2023-04-08T14:34:27;5.28;;;3.60;;
9789;SDS011;4934;50.852;8.098;2023-04-08T14:36:53;10.65;;;5.22;;
9789;SDS011;4934;50.852;8.098;2023-04-08T14:39:19;7.97;;;4.65;;
9789;SDS011;4934;50.852;8.098;2023-04-08T14:41:44;7.07;;;4.85;;
9789;SDS011;4934;50.852;8.098;2023-04-08T14:44:11;6.80;;;4.20;;
9789;SDS011;4934;50.852;8.098;2023-04-08T14:46:37;6.57;;;4.50;;
9789;SDS011;4934;50.852;8.098;2023-04-08T14:49:03;7.47;;;4.47;;
9789;SDS011;4934;50.852;8.098;2023-04-08T14:51:29;7.22;;;4.53;;
9789;SDS011;4934;50.852;8.098;2023-04-08T14:53:55;6.75;;;3.78;;
9789;SDS011;4934;50.852;8.098;2023-04-08T14:56:21;7.35;;;3.55;;
9789;SDS011;4934;50.852;8.098;2023-04-08T14:58:47;9.30;;;3.67;;
9789;SDS011;4934;50.852;8.098;2023-04-08T15:01:12;5.90;;;3.58;;
9789;SDS011;4934;50.852;8.098;2023-04-08T15:03:38;5.95;;;4.00;;
9789;SDS011;4934;50.852;8.098;2023-04-08T15:06:03;6.18;;;3.75;;
9789;SDS011;4934;50.852;8.098;2023-04-08T15:08:30;24.13;;;11.93;;
9789;SDS011;4934;50.852;8.098;2023-04-08T15:10:55;32.55;;;16.13;;
9789;SDS011;4934;50.852;8.098;2023-04-08T15:13:21;63.83;;;28.98;;